sensor_id;sensor_type;location;lat;lon;timestamp;P1;durP1;ratioP1;P2;durP2;ratioP2
75535;SDS011;64119;52.070;20.804;2023-07-29T00:02:19;6.90;;;5.60;;
75535;SDS011;64119;52.070;20.804;2023-07-29T00:04:47;6.40;;;5.30;;
75535;SDS011;64119;52.070;20.804;2023-07-29T00:07:14;8.50;;;5.60;;
75535;SDS011;64119;52.070;20.804;2023-07-29T00:09:42;7.80;;;4.90;;
75535;SDS011;64119;52.070;20.804;2023-07-29T00:12:10;7.00;;;4.90;;
75535;SDS011;64119;52.070;20.804;2023-07-29T00:14:38;6.40;;;4.80;;
75535;SDS011;64119;52.070;20.804;2023-07-29T00:17:05;6.10;;;5.00;;
75535;SDS011;64119;52.070;20.804;2023-07-29T00:19:33;7.10;;;4.20;;
75535;SDS011;64119;52.070;20.804;2023-07-29T00:22:01;5.40;;;4.30;;
75535;SDS011;64119;52.070;20.804;2023-07-29T00:24:30;5.90;;;4.50;;
75535;SDS011;64119;52.070;20.804;2023-07-29T00:26:57;5.50;;;4.50;;
75535;SDS011;64119;52.070;20.804;2023-07-29T00:29:25;6.40;;;4.10;;
75535;SDS011;64119;52.070;20.804;2023-07-29T00:31:53;6.50;;;4.60;;
75535;SDS011;64119;52.070;20.804;2023-07-29T00:34:21;5.80;;;4.50;;
75535;SDS011;64119;52.070;20.804;2023-07-29T00:36:48;7.90;;;5.50;;
75535;SDS011;64119;52.070;20.804;2023-07-29T00:39:16;6.50;;;4.70;;
75535;SDS011;64119;52.070;20.804;2023-07-29T00:41:44;9.10;;;5.20;;
75535;SDS011;64119;52.070;20.804;2023-07-29T00:44:12;6.80;;;5.10;;
75535;SDS011;64119;52.070;20.804;2023-07-29T00:46:39;7.90;;;5.10;;
75535;SDS011;64119;52.070;20.804;2023-07-29T00:49:09;7.70;;;5.50;;
75535;SDS011;64119;52.070;20.804;2023-07-29T00:51:37;7.70;;;5.10;;
75535;SDS011;64119;52.070;20.804;2023-07-29T00:54:04;6.20;;;5.30;;
75535;SDS011;64119;52.070;20.804;2023-07-29T00:56:32;7.30;;;5.00;;
75535;SDS011;64119;52.070;20.804;2023-07-29T00:59:01;5.90;;;4.70;;
75535;SDS011;64119;52.070;20.804;2023-07-29T01:01:30;7.40;;;5.40;;
75535;SDS011;64119;52.070;20.804;2023-07-29T01:09:33;7.70;;;5.30;;
75535;SDS011;64119;52.070;20.804;2023-07-29T01:12:21;8.20;;;5.30;;
75535;SDS011;64119;52.070;20.804;2023-07-29T01:17:40;8.00;;;5.20;;
75535;SDS011;64119;52.070;20.804;2023-07-29T01:20:12;7.40;;;5.70;;
75535;SDS011;64119;52.070;20.804;2023-07-29T01:22:43;7.50;;;5.30;;
75535;SDS011;64119;52.070;20.804;2023-07-29T01:25:11;7.50;;;5.50;;
75535;SDS011;64119;52.070;20.804;2023-07-29T01:27:40;7.50;;;4.90;;
75535;SDS011;64119;52.070;20.804;2023-07-29T01:30:09;7.10;;;4.70;;
75535;SDS011;64119;52.070;20.804;2023-07-29T01:32:45;9.90;;;6.20;;
75535;SDS011;64119;52.070;20.804;2023-07-29T01:35:22;6.30;;;5.00;;
75535;SDS011;64119;52.070;20.804;2023-07-29T01:38:22;6.50;;;5.00;;
75535;SDS011;64119;52.070;20.804;2023-07-29T01:40:56;8.60;;;5.50;;
75535;SDS011;64119;52.070;20.804;2023-07-29T01:43:24;8.00;;;5.30;;
75535;SDS011;64119;52.070;20.804;2023-07-29T01:45:53;8.60;;;6.00;;
75535;SDS011;64119;52.070;20.804;2023-07-29T01:48:22;8.00;;;6.30;;
75535;SDS011;64119;52.070;20.804;2023-07-29T01:50:50;11.60;;;5.50;;
75535;SDS011;64119;52.070;20.804;2023-07-29T01:53:18;6.80;;;5.50;;
75535;SDS011;64119;52.070;20.804;2023-07-29T01:55:46;8.70;;;6.00;;
75535;SDS011;64119;52.070;20.804;2023-07-29T01:58:14;7.40;;;5.90;;
75535;SDS011;64119;52.070;20.804;2023-07-29T02:00:46;10.10;;;7.00;;
75535;SDS011;64119;52.070;20.804;2023-07-29T02:03:14;7.60;;;5.80;;
75535;SDS011;64119;52.070;20.804;2023-07-29T02:05:41;9.10;;;6.10;;
75535;SDS011;64119;52.070;20.804;2023-07-29T02:10:39;8.40;;;5.50;;
75535;SDS011;64119;52.070;20.804;2023-07-29T02:13:07;8.90;;;5.90;;
75535;SDS011;64119;52.070;20.804;2023-07-29T02:15:35;8.10;;;6.30;;
75535;SDS011;64119;52.070;20.804;2023-07-29T02:18:03;8.90;;;6.10;;
75535;SDS011;64119;52.070;20.804;2023-07-29T02:20:31;9.40;;;6.30;;
75535;SDS011;64119;52.070;20.804;2023-07-29T02:22:59;9.60;;;7.00;;
75535;SDS011;64119;52.070;20.804;2023-07-29T02:25:27;10.10;;;6.30;;
75535;SDS011;64119;52.070;20.804;2023-07-29T02:27:55;9.70;;;7.20;;
75535;SDS011;64119;52.070;20.804;2023-07-29T02:30:23;10.70;;;7.30;;
75535;SDS011;64119;52.070;20.804;2023-07-29T02:32:51;13.00;;;7.60;;
75535;SDS011;64119;52.070;20.804;2023-07-29T02:35:19;14.00;;;8.90;;
75535;SDS011;64119;52.070;20.804;2023-07-29T02:37:46;13.00;;;8.70;;
75535;SDS011;64119;52.070;20.804;2023-07-29T02:40:14;16.30;;;9.80;;
75535;SDS011;64119;52.070;20.804;2023-07-29T02:42:42;14.00;;;8.90;;
75535;SDS011;64119;52.070;20.804;2023-07-29T02:45:10;14.60;;;8.50;;
75535;SDS011;64119;52.070;20.804;2023-07-29T02:47:39;15.20;;;9.40;;
75535;SDS011;64119;52.070;20.804;2023-07-29T02:50:07;16.00;;;10.40;;
75535;SDS011;64119;52.070;20.804;2023-07-29T02:52:35;12.60;;;8.90;;
75535;SDS011;64119;52.070;20.804;2023-07-29T02:55:02;15.50;;;10.10;;
75535;SDS011;64119;52.070;20.804;2023-07-29T02:57:30;16.40;;;10.30;;
75535;SDS011;64119;52.070;20.804;2023-07-29T02:59:58;14.10;;;9.30;;
75535;SDS011;64119;52.070;20.804;2023-07-29T03:02:26;13.80;;;9.20;;
75535;SDS011;64119;52.070;20.804;2023-07-29T03:04:55;14.00;;;9.00;;
75535;SDS011;64119;52.070;20.804;2023-07-29T03:07:22;15.30;;;9.60;;
75535;SDS011;64119;52.070;20.804;2023-07-29T03:09:50;17.40;;;9.80;;
75535;SDS011;64119;52.070;20.804;2023-07-29T03:12:18;13.90;;;9.30;;
75535;SDS011;64119;52.070;20.804;2023-07-29T03:14:47;13.80;;;9.10;;
75535;SDS011;64119;52.070;20.804;2023-07-29T03:17:16;15.60;;;10.20;;
75535;SDS011;64119;52.070;20.804;2023-07-29T03:21:10;16.60;;;9.70;;
75535;SDS011;64119;52.070;20.804;2023-07-29T03:23:38;15.20;;;10.00;;
75535;SDS011;64119;52.070;20.804;2023-07-29T03:26:06;17.60;;;10.60;;
75535;SDS011;64119;52.070;20.804;2023-07-29T03:28:39;16.70;;;10.40;;
75535;SDS011;64119;52.070;20.804;2023-07-29T03:31:10;15.20;;;9.50;;
75535;SDS011;64119;52.070;20.804;2023-07-29T03:33:39;15.10;;;10.40;;
75535;SDS011;64119;52.070;20.804;2023-07-29T03:36:07;15.40;;;9.70;;
75535;SDS011;64119;52.070;20.804;2023-07-29T03:38:34;14.70;;;9.60;;
75535;SDS011;64119;52.070;20.804;2023-07-29T03:41:08;16.50;;;10.80;;
75535;SDS011;64119;52.070;20.804;2023-07-29T03:43:36;13.90;;;9.90;;
75535;SDS011;64119;52.070;20.804;2023-07-29T03:46:04;17.80;;;11.30;;
75535;SDS011;64119;52.070;20.804;2023-07-29T03:48:35;17.00;;;10.30;;
75535;SDS011;64119;52.070;20.804;2023-07-29T03:51:03;15.90;;;10.30;;
75535;SDS011;64119;52.070;20.804;2023-07-29T03:53:31;13.90;;;9.30;;
75535;SDS011;64119;52.070;20.804;2023-07-29T03:55:59;17.50;;;10.20;;
75535;SDS011;64119;52.070;20.804;2023-07-29T03:58:27;15.20;;;9.50;;
75535;SDS011;64119;52.070;20.804;2023-07-29T04:00:54;15.30;;;10.20;;
75535;SDS011;64119;52.070;20.804;2023-07-29T04:03:22;16.60;;;10.30;;
75535;SDS011;64119;52.070;20.804;2023-07-29T04:05:51;14.70;;;9.30;;
75535;SDS011;64119;52.070;20.804;2023-07-29T04:08:20;15.70;;;10.60;;
75535;SDS011;64119;52.070;20.804;2023-07-29T04:10:48;15.30;;;10.40;;
75535;SDS011;64119;52.070;20.804;2023-07-29T04:13:15;13.40;;;8.90;;
75535;SDS011;64119;52.070;20.804;2023-07-29T04:15:43;15.40;;;9.80;;
75535;SDS011;64119;52.070;20.804;2023-07-29T04:18:12;14.80;;;9.70;;
75535;SDS011;64119;52.070;20.804;2023-07-29T04:20:40;16.40;;;10.60;;
75535;SDS011;64119;52.070;20.804;2023-07-29T04:23:08;14.20;;;9.50;;
75535;SDS011;64119;52.070;20.804;2023-07-29T04:25:36;14.20;;;9.70;;
75535;SDS011;64119;52.070;20.804;2023-07-29T04:28:04;14.30;;;9.90;;
75535;SDS011;64119;52.070;20.804;2023-07-29T04:30:32;13.80;;;9.70;;
75535;SDS011;64119;52.070;20.804;2023-07-29T04:33:00;15.80;;;10.70;;
75535;SDS011;64119;52.070;20.804;2023-07-29T04:35:28;15.10;;;10.10;;
75535;SDS011;64119;52.070;20.804;2023-07-29T04:37:56;14.60;;;9.00;;
75535;SDS011;64119;52.070;20.804;2023-07-29T04:40:24;14.50;;;9.50;;
75535;SDS011;64119;52.070;20.804;2023-07-29T04:42:52;13.10;;;9.20;;
75535;SDS011;64119;52.070;20.804;2023-07-29T04:45:20;12.20;;;8.40;;
75535;SDS011;64119;52.070;20.804;2023-07-29T04:47:47;14.60;;;9.50;;
75535;SDS011;64119;52.070;20.804;2023-07-29T04:50:15;14.20;;;9.90;;
75535;SDS011;64119;52.070;20.804;2023-07-29T04:52:43;15.40;;;10.10;;
75535;SDS011;64119;52.070;20.804;2023-07-29T04:55:11;15.10;;;9.80;;
75535;SDS011;64119;52.070;20.804;2023-07-29T04:57:38;14.10;;;9.10;;
75535;SDS011;64119;52.070;20.804;2023-07-29T05:00:06;13.60;;;9.10;;
75535;SDS011;64119;52.070;20.804;2023-07-29T05:02:34;14.70;;;9.80;;
75535;SDS011;64119;52.070;20.804;2023-07-29T05:05:03;16.80;;;10.50;;
75535;SDS011;64119;52.070;20.804;2023-07-29T05:07:31;17.70;;;10.40;;
75535;SDS011;64119;52.070;20.804;2023-07-29T05:09:59;14.40;;;10.40;;
75535;SDS011;64119;52.070;20.804;2023-07-29T05:12:27;15.30;;;9.50;;
75535;SDS011;64119;52.070;20.804;2023-07-29T05:14:57;12.50;;;9.30;;
75535;SDS011;64119;52.070;20.804;2023-07-29T05:17:25;11.20;;;7.90;;
75535;SDS011;64119;52.070;20.804;2023-07-29T05:19:53;11.90;;;8.40;;
75535;SDS011;64119;52.070;20.804;2023-07-29T05:22:21;10.80;;;7.80;;
75535;SDS011;64119;52.070;20.804;2023-07-29T05:24:49;11.20;;;8.00;;
75535;SDS011;64119;52.070;20.804;2023-07-29T05:27:17;11.30;;;7.90;;
75535;SDS011;64119;52.070;20.804;2023-07-29T05:29:44;11.40;;;8.70;;
75535;SDS011;64119;52.070;20.804;2023-07-29T05:32:12;11.70;;;8.30;;
75535;SDS011;64119;52.070;20.804;2023-07-29T05:34:41;11.90;;;8.20;;
75535;SDS011;64119;52.070;20.804;2023-07-29T05:37:09;13.10;;;8.90;;
75535;SDS011;64119;52.070;20.804;2023-07-29T05:39:37;11.20;;;7.80;;
75535;SDS011;64119;52.070;20.804;2023-07-29T05:42:05;10.00;;;7.20;;
75535;SDS011;64119;52.070;20.804;2023-07-29T05:44:33;11.80;;;8.10;;
75535;SDS011;64119;52.070;20.804;2023-07-29T05:47:01;9.70;;;7.40;;
75535;SDS011;64119;52.070;20.804;2023-07-29T05:49:29;11.50;;;7.20;;
75535;SDS011;64119;52.070;20.804;2023-07-29T05:51:57;9.70;;;7.20;;
75535;SDS011;64119;52.070;20.804;2023-07-29T05:54:26;8.80;;;6.70;;
75535;SDS011;64119;52.070;20.804;2023-07-29T05:56:54;9.10;;;6.60;;
75535;SDS011;64119;52.070;20.804;2023-07-29T05:59:22;8.30;;;6.50;;
75535;SDS011;64119;52.070;20.804;2023-07-29T06:01:50;9.10;;;7.30;;
75535;SDS011;64119;52.070;20.804;2023-07-29T06:04:18;8.60;;;6.60;;
75535;SDS011;64119;52.070;20.804;2023-07-29T06:06:46;9.60;;;7.30;;
75535;SDS011;64119;52.070;20.804;2023-07-29T06:09:13;10.20;;;6.80;;
75535;SDS011;64119;52.070;20.804;2023-07-29T06:11:41;10.90;;;8.50;;
75535;SDS011;64119;52.070;20.804;2023-07-29T06:14:09;10.40;;;6.60;;
75535;SDS011;64119;52.070;20.804;2023-07-29T06:16:37;9.10;;;6.50;;
75535;SDS011;64119;52.070;20.804;2023-07-29T06:19:05;7.70;;;6.20;;
75535;SDS011;64119;52.070;20.804;2023-07-29T06:21:33;9.20;;;6.00;;
75535;SDS011;64119;52.070;20.804;2023-07-29T06:24:01;7.50;;;5.50;;
75535;SDS011;64119;52.070;20.804;2023-07-29T06:26:29;7.00;;;5.40;;
75535;SDS011;64119;52.070;20.804;2023-07-29T06:28:57;5.70;;;5.00;;
75535;SDS011;64119;52.070;20.804;2023-07-29T06:31:25;7.60;;;5.50;;
75535;SDS011;64119;52.070;20.804;2023-07-29T06:33:52;5.80;;;4.90;;
75535;SDS011;64119;52.070;20.804;2023-07-29T06:36:22;7.00;;;5.40;;
75535;SDS011;64119;52.070;20.804;2023-07-29T06:38:50;7.40;;;4.90;;
75535;SDS011;64119;52.070;20.804;2023-07-29T06:41:18;6.10;;;5.40;;
75535;SDS011;64119;52.070;20.804;2023-07-29T06:43:47;5.70;;;4.80;;
75535;SDS011;64119;52.070;20.804;2023-07-29T06:46:15;6.00;;;4.70;;
75535;SDS011;64119;52.070;20.804;2023-07-29T06:48:42;5.60;;;4.10;;
75535;SDS011;64119;52.070;20.804;2023-07-29T06:51:10;5.00;;;4.50;;
75535;SDS011;64119;52.070;20.804;2023-07-29T06:53:38;4.50;;;4.10;;
75535;SDS011;64119;52.070;20.804;2023-07-29T06:56:06;6.90;;;4.70;;
75535;SDS011;64119;52.070;20.804;2023-07-29T06:58:34;4.70;;;3.50;;
75535;SDS011;64119;52.070;20.804;2023-07-29T07:01:02;3.70;;;3.30;;
75535;SDS011;64119;52.070;20.804;2023-07-29T07:03:31;3.90;;;3.30;;
75535;SDS011;64119;52.070;20.804;2023-07-29T07:05:58;3.40;;;3.10;;
75535;SDS011;64119;52.070;20.804;2023-07-29T07:08:26;6.90;;;3.60;;
75535;SDS011;64119;52.070;20.804;2023-07-29T07:10:54;5.60;;;4.10;;
75535;SDS011;64119;52.070;20.804;2023-07-29T07:13:22;4.70;;;3.60;;
75535;SDS011;64119;52.070;20.804;2023-07-29T07:15:50;4.90;;;4.00;;
75535;SDS011;64119;52.070;20.804;2023-07-29T07:18:18;5.40;;;3.90;;
75535;SDS011;64119;52.070;20.804;2023-07-29T07:20:47;5.40;;;3.80;;
75535;SDS011;64119;52.070;20.804;2023-07-29T07:23:16;4.70;;;4.10;;
75535;SDS011;64119;52.070;20.804;2023-07-29T07:25:44;4.40;;;3.70;;
75535;SDS011;64119;52.070;20.804;2023-07-29T07:28:12;4.80;;;4.20;;
75535;SDS011;64119;52.070;20.804;2023-07-29T07:30:40;3.70;;;3.30;;
75535;SDS011;64119;52.070;20.804;2023-07-29T07:33:09;3.80;;;3.30;;
75535;SDS011;64119;52.070;20.804;2023-07-29T07:35:37;4.10;;;2.70;;
75535;SDS011;64119;52.070;20.804;2023-07-29T07:38:05;3.20;;;2.60;;
75535;SDS011;64119;52.070;20.804;2023-07-29T07:40:35;5.10;;;2.90;;
75535;SDS011;64119;52.070;20.804;2023-07-29T07:43:06;3.50;;;2.70;;
75535;SDS011;64119;52.070;20.804;2023-07-29T07:45:33;3.40;;;2.80;;
75535;SDS011;64119;52.070;20.804;2023-07-29T07:48:01;3.50;;;3.00;;
75535;SDS011;64119;52.070;20.804;2023-07-29T07:50:30;3.70;;;3.20;;
75535;SDS011;64119;52.070;20.804;2023-07-29T07:52:58;4.00;;;3.00;;
75535;SDS011;64119;52.070;20.804;2023-07-29T07:55:25;3.60;;;3.00;;
75535;SDS011;64119;52.070;20.804;2023-07-29T07:57:53;3.40;;;2.70;;
75535;SDS011;64119;52.070;20.804;2023-07-29T08:00:21;3.80;;;2.80;;
75535;SDS011;64119;52.070;20.804;2023-07-29T08:02:48;2.40;;;2.10;;
75535;SDS011;64119;52.070;20.804;2023-07-29T08:05:16;2.80;;;2.40;;
75535;SDS011;64119;52.070;20.804;2023-07-29T08:07:45;2.80;;;2.50;;
75535;SDS011;64119;52.070;20.804;2023-07-29T08:10:13;3.10;;;2.80;;
75535;SDS011;64119;52.070;20.804;2023-07-29T08:12:41;3.10;;;2.70;;
75535;SDS011;64119;52.070;20.804;2023-07-29T08:15:08;3.90;;;2.40;;
75535;SDS011;64119;52.070;20.804;2023-07-29T08:17:36;4.00;;;2.70;;
75535;SDS011;64119;52.070;20.804;2023-07-29T08:23:00;3.80;;;2.50;;
75535;SDS011;64119;52.070;20.804;2023-07-29T08:25:28;2.60;;;2.20;;
75535;SDS011;64119;52.070;20.804;2023-07-29T08:27:56;3.00;;;2.10;;
75535;SDS011;64119;52.070;20.804;2023-07-29T08:30:24;2.70;;;2.30;;
75535;SDS011;64119;52.070;20.804;2023-07-29T08:32:52;4.00;;;2.40;;
75535;SDS011;64119;52.070;20.804;2023-07-29T08:35:20;2.80;;;2.40;;
75535;SDS011;64119;52.070;20.804;2023-07-29T08:37:48;2.70;;;2.30;;
75535;SDS011;64119;52.070;20.804;2023-07-29T08:40:15;3.10;;;2.00;;
75535;SDS011;64119;52.070;20.804;2023-07-29T08:42:43;2.70;;;1.90;;
75535;SDS011;64119;52.070;20.804;2023-07-29T08:45:14;5.20;;;2.30;;
75535;SDS011;64119;52.070;20.804;2023-07-29T08:47:45;2.60;;;2.10;;
75535;SDS011;64119;52.070;20.804;2023-07-29T08:50:13;3.20;;;2.10;;
75535;SDS011;64119;52.070;20.804;2023-07-29T08:52:42;3.00;;;2.30;;
75535;SDS011;64119;52.070;20.804;2023-07-29T08:55:11;2.70;;;2.30;;
75535;SDS011;64119;52.070;20.804;2023-07-29T08:57:39;2.80;;;2.10;;
75535;SDS011;64119;52.070;20.804;2023-07-29T09:00:07;3.00;;;2.30;;
75535;SDS011;64119;52.070;20.804;2023-07-29T09:05:04;2.50;;;2.00;;
75535;SDS011;64119;52.070;20.804;2023-07-29T09:07:32;3.00;;;2.30;;
75535;SDS011;64119;52.070;20.804;2023-07-29T09:10:03;2.60;;;1.90;;
75535;SDS011;64119;52.070;20.804;2023-07-29T09:12:31;2.50;;;1.80;;
75535;SDS011;64119;52.070;20.804;2023-07-29T09:14:58;2.70;;;2.10;;
75535;SDS011;64119;52.070;20.804;2023-07-29T09:17:26;4.70;;;2.30;;
75535;SDS011;64119;52.070;20.804;2023-07-29T09:19:58;2.20;;;1.90;;
75535;SDS011;64119;52.070;20.804;2023-07-29T09:22:27;3.90;;;2.40;;
75535;SDS011;64119;52.070;20.804;2023-07-29T09:24:56;2.60;;;1.90;;
75535;SDS011;64119;52.070;20.804;2023-07-29T09:27:25;3.40;;;2.10;;
75535;SDS011;64119;52.070;20.804;2023-07-29T09:29:54;3.20;;;2.10;;
75535;SDS011;64119;52.070;20.804;2023-07-29T09:32:24;2.70;;;2.20;;
75535;SDS011;64119;52.070;20.804;2023-07-29T09:34:52;2.40;;;2.00;;
75535;SDS011;64119;52.070;20.804;2023-07-29T09:37:20;2.40;;;2.20;;
75535;SDS011;64119;52.070;20.804;2023-07-29T09:42:18;3.00;;;2.10;;
75535;SDS011;64119;52.070;20.804;2023-07-29T09:44:50;2.50;;;1.90;;
75535;SDS011;64119;52.070;20.804;2023-07-29T09:47:22;3.30;;;2.10;;
75535;SDS011;64119;52.070;20.804;2023-07-29T09:49:52;2.60;;;1.90;;
75535;SDS011;64119;52.070;20.804;2023-07-29T09:52:21;2.70;;;2.20;;
75535;SDS011;64119;52.070;20.804;2023-07-29T09:54:50;2.20;;;2.00;;
75535;SDS011;64119;52.070;20.804;2023-07-29T09:57:18;4.80;;;2.30;;
75535;SDS011;64119;52.070;20.804;2023-07-29T09:59:53;2.60;;;2.10;;
75535;SDS011;64119;52.070;20.804;2023-07-29T10:02:22;2.60;;;1.90;;
75535;SDS011;64119;52.070;20.804;2023-07-29T10:04:53;2.70;;;2.20;;
75535;SDS011;64119;52.070;20.804;2023-07-29T10:07:22;2.50;;;2.00;;
75535;SDS011;64119;52.070;20.804;2023-07-29T10:09:51;2.00;;;1.70;;
75535;SDS011;64119;52.070;20.804;2023-07-29T10:12:19;2.70;;;1.70;;
75535;SDS011;64119;52.070;20.804;2023-07-29T10:14:49;2.40;;;1.70;;
75535;SDS011;64119;52.070;20.804;2023-07-29T10:19:47;2.30;;;1.90;;
75535;SDS011;64119;52.070;20.804;2023-07-29T10:22:16;2.00;;;1.80;;
75535;SDS011;64119;52.070;20.804;2023-07-29T10:24:48;2.80;;;1.80;;
75535;SDS011;64119;52.070;20.804;2023-07-29T10:27:17;2.30;;;2.00;;
75535;SDS011;64119;52.070;20.804;2023-07-29T10:29:46;4.60;;;2.20;;
75535;SDS011;64119;52.070;20.804;2023-07-29T10:32:15;2.50;;;1.80;;
75535;SDS011;64119;52.070;20.804;2023-07-29T10:34:43;2.50;;;2.20;;
75535;SDS011;64119;52.070;20.804;2023-07-29T10:37:11;2.30;;;1.90;;
75535;SDS011;64119;52.070;20.804;2023-07-29T10:39:39;2.20;;;1.70;;
75535;SDS011;64119;52.070;20.804;2023-07-29T10:42:08;2.00;;;1.70;;
75535;SDS011;64119;52.070;20.804;2023-07-29T10:47:13;3.70;;;1.80;;
75535;SDS011;64119;52.070;20.804;2023-07-29T10:49:45;2.60;;;1.80;;
75535;SDS011;64119;52.070;20.804;2023-07-29T10:52:15;2.30;;;1.80;;
75535;SDS011;64119;52.070;20.804;2023-07-29T10:54:44;2.20;;;1.70;;
75535;SDS011;64119;52.070;20.804;2023-07-29T10:57:14;2.30;;;1.90;;
75535;SDS011;64119;52.070;20.804;2023-07-29T11:00:08;3.00;;;2.10;;
75535;SDS011;64119;52.070;20.804;2023-07-29T11:02:37;2.20;;;2.00;;
75535;SDS011;64119;52.070;20.804;2023-07-29T11:05:07;2.20;;;2.00;;
75535;SDS011;64119;52.070;20.804;2023-07-29T11:07:47;2.80;;;1.90;;
75535;SDS011;64119;52.070;20.804;2023-07-29T11:10:16;2.20;;;2.00;;
75535;SDS011;64119;52.070;20.804;2023-07-29T11:12:47;2.60;;;2.00;;
75535;SDS011;64119;52.070;20.804;2023-07-29T11:15:27;4.40;;;2.20;;
75535;SDS011;64119;52.070;20.804;2023-07-29T11:17:57;2.30;;;2.10;;
75535;SDS011;64119;52.070;20.804;2023-07-29T11:20:30;2.30;;;2.00;;
75535;SDS011;64119;52.070;20.804;2023-07-29T11:23:00;2.80;;;1.90;;
75535;SDS011;64119;52.070;20.804;2023-07-29T11:25:30;2.80;;;1.90;;
75535;SDS011;64119;52.070;20.804;2023-07-29T11:27:59;2.00;;;1.70;;
75535;SDS011;64119;52.070;20.804;2023-07-29T11:30:33;2.60;;;1.90;;
75535;SDS011;64119;52.070;20.804;2023-07-29T11:33:02;3.30;;;1.60;;
75535;SDS011;64119;52.070;20.804;2023-07-29T11:37:59;1.90;;;1.70;;
75535;SDS011;64119;52.070;20.804;2023-07-29T11:40:27;2.30;;;1.80;;
75535;SDS011;64119;52.070;20.804;2023-07-29T11:42:55;3.00;;;1.70;;
75535;SDS011;64119;52.070;20.804;2023-07-29T11:45:22;3.20;;;1.90;;
75535;SDS011;64119;52.070;20.804;2023-07-29T11:48:02;3.70;;;1.80;;
75535;SDS011;64119;52.070;20.804;2023-07-29T11:50:30;2.10;;;1.50;;
75535;SDS011;64119;52.070;20.804;2023-07-29T11:52:58;1.90;;;1.40;;
75535;SDS011;64119;52.070;20.804;2023-07-29T11:55:26;1.90;;;1.50;;
75535;SDS011;64119;52.070;20.804;2023-07-29T11:57:54;2.00;;;1.50;;
75535;SDS011;64119;52.070;20.804;2023-07-29T12:00:22;3.30;;;1.80;;
75535;SDS011;64119;52.070;20.804;2023-07-29T12:02:52;1.80;;;1.30;;
75535;SDS011;64119;52.070;20.804;2023-07-29T12:05:21;2.30;;;1.60;;
75535;SDS011;64119;52.070;20.804;2023-07-29T12:07:50;1.90;;;1.30;;
75535;SDS011;64119;52.070;20.804;2023-07-29T12:10:18;2.50;;;1.60;;
75535;SDS011;64119;52.070;20.804;2023-07-29T12:12:48;1.70;;;1.30;;
75535;SDS011;64119;52.070;20.804;2023-07-29T12:15:24;2.40;;;1.50;;
75535;SDS011;64119;52.070;20.804;2023-07-29T12:17:54;3.80;;;2.00;;
75535;SDS011;64119;52.070;20.804;2023-07-29T12:20:24;3.00;;;1.80;;
75535;SDS011;64119;52.070;20.804;2023-07-29T12:22:54;2.00;;;1.40;;
75535;SDS011;64119;52.070;20.804;2023-07-29T12:25:23;1.90;;;1.60;;
75535;SDS011;64119;52.070;20.804;2023-07-29T12:27:53;3.70;;;1.70;;
75535;SDS011;64119;52.070;20.804;2023-07-29T12:30:23;2.30;;;1.80;;
75535;SDS011;64119;52.070;20.804;2023-07-29T12:32:52;2.10;;;1.60;;
75535;SDS011;64119;52.070;20.804;2023-07-29T12:35:21;2.10;;;1.60;;
75535;SDS011;64119;52.070;20.804;2023-07-29T12:37:58;3.00;;;1.50;;
75535;SDS011;64119;52.070;20.804;2023-07-29T12:40:27;3.50;;;1.70;;
75535;SDS011;64119;52.070;20.804;2023-07-29T12:42:55;2.40;;;1.80;;
75535;SDS011;64119;52.070;20.804;2023-07-29T12:45:23;2.30;;;1.50;;
75535;SDS011;64119;52.070;20.804;2023-07-29T12:47:55;2.00;;;1.40;;
75535;SDS011;64119;52.070;20.804;2023-07-29T12:50:23;2.60;;;1.80;;
75535;SDS011;64119;52.070;20.804;2023-07-29T12:52:51;2.00;;;1.60;;
75535;SDS011;64119;52.070;20.804;2023-07-29T12:55:19;2.50;;;1.80;;
75535;SDS011;64119;52.070;20.804;2023-07-29T12:57:50;2.00;;;1.50;;
75535;SDS011;64119;52.070;20.804;2023-07-29T13:00:19;1.90;;;1.40;;
75535;SDS011;64119;52.070;20.804;2023-07-29T13:02:47;2.00;;;1.60;;
75535;SDS011;64119;52.070;20.804;2023-07-29T13:05:15;1.60;;;1.30;;
75535;SDS011;64119;52.070;20.804;2023-07-29T13:07:43;2.20;;;1.60;;
75535;SDS011;64119;52.070;20.804;2023-07-29T13:10:11;2.30;;;1.70;;
75535;SDS011;64119;52.070;20.804;2023-07-29T13:12:39;4.40;;;1.80;;
75535;SDS011;64119;52.070;20.804;2023-07-29T13:15:08;3.80;;;1.50;;
75535;SDS011;64119;52.070;20.804;2023-07-29T13:17:36;2.00;;;1.40;;
75535;SDS011;64119;52.070;20.804;2023-07-29T13:20:05;2.50;;;1.80;;
75535;SDS011;64119;52.070;20.804;2023-07-29T13:22:34;2.60;;;1.60;;
75535;SDS011;64119;52.070;20.804;2023-07-29T13:25:02;2.10;;;1.50;;
75535;SDS011;64119;52.070;20.804;2023-07-29T13:27:29;3.20;;;1.30;;
75535;SDS011;64119;52.070;20.804;2023-07-29T13:29:57;2.20;;;1.60;;
75535;SDS011;64119;52.070;20.804;2023-07-29T13:32:25;2.10;;;1.50;;
75535;SDS011;64119;52.070;20.804;2023-07-29T13:34:53;2.30;;;1.50;;
75535;SDS011;64119;52.070;20.804;2023-07-29T13:37:21;2.30;;;1.40;;
75535;SDS011;64119;52.070;20.804;2023-07-29T13:39:48;2.00;;;1.60;;
75535;SDS011;64119;52.070;20.804;2023-07-29T13:42:16;2.50;;;1.40;;
75535;SDS011;64119;52.070;20.804;2023-07-29T13:44:44;2.70;;;1.40;;
75535;SDS011;64119;52.070;20.804;2023-07-29T13:47:11;2.20;;;1.70;;
75535;SDS011;64119;52.070;20.804;2023-07-29T13:49:39;2.50;;;1.70;;
75535;SDS011;64119;52.070;20.804;2023-07-29T13:52:07;3.00;;;1.90;;
75535;SDS011;64119;52.070;20.804;2023-07-29T13:54:35;2.50;;;1.50;;
75535;SDS011;64119;52.070;20.804;2023-07-29T13:57:03;2.30;;;1.60;;
75535;SDS011;64119;52.070;20.804;2023-07-29T13:59:31;2.40;;;1.70;;
75535;SDS011;64119;52.070;20.804;2023-07-29T14:01:58;3.80;;;1.70;;
75535;SDS011;64119;52.070;20.804;2023-07-29T14:04:26;2.40;;;1.30;;
75535;SDS011;64119;52.070;20.804;2023-07-29T14:06:54;3.10;;;1.80;;
75535;SDS011;64119;52.070;20.804;2023-07-29T14:09:26;1.90;;;1.50;;
75535;SDS011;64119;52.070;20.804;2023-07-29T14:11:54;2.70;;;1.50;;
75535;SDS011;64119;52.070;20.804;2023-07-29T14:14:22;2.30;;;1.60;;
75535;SDS011;64119;52.070;20.804;2023-07-29T14:16:50;2.20;;;1.40;;
75535;SDS011;64119;52.070;20.804;2023-07-29T14:19:18;2.00;;;1.40;;
75535;SDS011;64119;52.070;20.804;2023-07-29T14:21:45;1.90;;;1.30;;
75535;SDS011;64119;52.070;20.804;2023-07-29T14:24:13;2.20;;;1.40;;
75535;SDS011;64119;52.070;20.804;2023-07-29T14:26:42;2.20;;;1.90;;
75535;SDS011;64119;52.070;20.804;2023-07-29T14:29:10;2.20;;;1.60;;
75535;SDS011;64119;52.070;20.804;2023-07-29T14:31:37;2.20;;;1.70;;
75535;SDS011;64119;52.070;20.804;2023-07-29T14:34:05;2.10;;;1.70;;
75535;SDS011;64119;52.070;20.804;2023-07-29T14:36:33;3.40;;;1.60;;
75535;SDS011;64119;52.070;20.804;2023-07-29T14:39:02;2.40;;;1.40;;
75535;SDS011;64119;52.070;20.804;2023-07-29T14:41:30;2.20;;;1.60;;
75535;SDS011;64119;52.070;20.804;2023-07-29T14:43:58;2.30;;;1.80;;
75535;SDS011;64119;52.070;20.804;2023-07-29T14:46:26;2.20;;;1.80;;
75535;SDS011;64119;52.070;20.804;2023-07-29T14:48:54;4.00;;;1.80;;
75535;SDS011;64119;52.070;20.804;2023-07-29T14:51:21;2.10;;;1.50;;
75535;SDS011;64119;52.070;20.804;2023-07-29T14:56:19;2.30;;;1.50;;
75535;SDS011;64119;52.070;20.804;2023-07-29T14:58:50;3.00;;;1.70;;
75535;SDS011;64119;52.070;20.804;2023-07-29T15:01:18;4.20;;;1.80;;
75535;SDS011;64119;52.070;20.804;2023-07-29T15:03:46;3.00;;;1.80;;
75535;SDS011;64119;52.070;20.804;2023-07-29T15:06:14;2.30;;;1.80;;
75535;SDS011;64119;52.070;20.804;2023-07-29T15:08:41;2.20;;;1.60;;
75535;SDS011;64119;52.070;20.804;2023-07-29T15:11:09;1.90;;;1.70;;